createdAt,value
2019-01-02T00:00:54.650Z,88.30
2019-01-02T00:03:24.310Z,86.90
2019-01-02T00:05:54.266Z,86.20
2019-01-02T00:08:23.894Z,86.90
2019-01-02T00:10:53.582Z,87.00
2019-01-02T00:13:23.335Z,88.50
2019-01-02T00:15:53.041Z,88.20
2019-01-02T00:18:24.992Z,86.60
2019-01-02T00:20:54.643Z,87.40
2019-01-02T00:23:26.121Z,87.50
2019-01-02T00:25:59.805Z,88.10
2019-01-02T00:28:30.680Z,88.60
2019-01-02T00:31:00.375Z,89.20
2019-01-02T00:33:30.048Z,90.00
2019-01-02T00:36:00.197Z,90.60
2019-01-02T00:38:33.101Z,90.10
2019-01-02T00:41:03.723Z,89.30
2019-01-02T00:43:33.353Z,89.00
2019-01-02T00:46:03.360Z,88.60
2019-01-02T00:48:33.035Z,88.00
2019-01-02T00:51:02.665Z,86.70
2019-01-02T00:53:32.315Z,87.00
2019-01-02T00:56:02.298Z,88.10
2019-01-02T00:58:31.995Z,88.40
2019-01-02T01:01:02.016Z,88.40
2019-01-02T01:03:31.653Z,88.40
2019-01-02T01:06:01.642Z,88.10
2019-01-02T01:08:31.256Z,89.20
2019-01-02T01:11:01.316Z,89.00
2019-01-02T01:13:30.934Z,89.10
2019-01-02T01:16:00.965Z,90.00
2019-01-02T01:18:30.611Z,90.10
2019-01-02T01:21:00.683Z,90.00
2019-01-02T01:23:30.286Z,90.40
2019-01-02T01:25:59.934Z,91.10
2019-01-02T01:28:29.870Z,90.40
2019-01-02T01:30:59.486Z,90.20
2019-01-02T01:33:29.169Z,90.40
2019-01-02T01:35:58.811Z,90.70
2019-01-02T01:38:28.468Z,90.70
2019-01-02T01:40:58.605Z,91.00
2019-01-02T01:43:28.223Z,91.40
2019-01-02T01:45:57.837Z,91.60
2019-01-02T01:48:29.529Z,91.40
2019-01-02T01:50:59.170Z,91.60
2019-01-02T01:53:28.811Z,91.30
2019-01-02T01:55:58.496Z,91.20
2019-01-02T01:58:28.206Z,91.30
2019-01-02T02:00:58.124Z,91.10
2019-01-02T02:03:29.312Z,91.30
2019-01-02T02:05:58.922Z,92.20
2019-01-02T02:08:28.877Z,92.00
2019-01-02T02:10:58.549Z,92.10
2019-01-02T02:13:28.206Z,92.00
2019-01-02T02:15:57.874Z,93.00
2019-01-02T02:18:27.558Z,92.70
2019-01-02T02:20:57.594Z,92.30
2019-01-02T02:23:27.247Z,91.90
2019-01-02T02:25:56.870Z,92.60
2019-01-02T02:28:26.808Z,93.30
2019-01-02T02:30:56.461Z,93.90
2019-01-02T02:33:26.510Z,94.70
2019-01-02T02:35:56.582Z,94.80
2019-01-02T02:38:26.522Z,95.20
2019-01-02T02:40:56.571Z,95.60
2019-01-02T02:43:27.118Z,95.60
2019-01-02T02:45:56.788Z,95.60
2019-01-02T02:48:26.819Z,96.00
2019-01-02T02:50:56.861Z,95.50
2019-01-02T02:53:26.968Z,95.20
2019-01-02T02:55:57.037Z,94.60
2019-01-02T02:58:27.061Z,94.90
2019-01-02T03:00:57.015Z,95.20
2019-01-02T03:03:27.079Z,95.20
2019-01-02T03:05:57.435Z,94.90
2019-01-02T03:08:27.101Z,95.30
2019-01-02T03:10:58.087Z,95.10
2019-01-02T03:13:28.029Z,95.20
2019-01-02T03:15:58.320Z,95.50
2019-01-02T03:18:28.410Z,95.70
2019-01-02T03:20:58.467Z,96.50
2019-01-02T03:23:28.128Z,96.70
2019-01-02T03:25:57.807Z,96.90
2019-01-02T03:28:28.196Z,96.30
2019-01-02T03:30:58.179Z,95.70
2019-01-02T03:33:28.260Z,95.70
2019-01-02T03:35:57.917Z,96.70
2019-01-02T03:38:27.518Z,97.30
2019-01-02T03:40:57.137Z,97.60
2019-01-02T03:43:26.776Z,97.50
2019-01-02T03:45:56.432Z,97.90
2019-01-02T03:48:29.977Z,99.10
2019-01-02T03:50:59.760Z,99.90
2019-01-02T03:53:29.359Z,99.90
2019-01-02T03:55:59.008Z,99.90
2019-01-02T03:58:29.071Z,99.90
2019-01-02T04:00:58.735Z,99.90
2019-01-02T04:03:28.423Z,99.90
2019-01-02T04:05:58.061Z,99.30
2019-01-02T04:08:28.408Z,99.60
2019-01-02T04:10:58.018Z,99.90
2019-01-02T04:13:27.688Z,99.40
2019-01-02T04:15:57.430Z,99.50
2019-01-02T04:18:27.142Z,99.60
2019-01-02T04:20:56.822Z,99.20
2019-01-02T04:23:26.443Z,99.40
2019-01-02T04:25:56.104Z,99.40
2019-01-02T04:28:25.747Z,99.40
2019-01-02T04:30:55.372Z,99.00
2019-01-02T04:33:25.062Z,98.40
2019-01-02T04:35:54.730Z,97.90
2019-01-02T04:38:24.384Z,97.90
2019-01-02T04:40:54.026Z,98.70
2019-01-02T04:43:23.714Z,98.90
2019-01-02T04:45:53.440Z,98.30
2019-01-02T04:48:23.103Z,98.70
2019-01-02T04:50:52.767Z,99.20
2019-01-02T04:53:22.431Z,99.20
2019-01-02T04:55:52.033Z,99.80
2019-01-02T04:58:21.651Z,99.20
2019-01-02T05:00:51.282Z,99.40
2019-01-02T05:03:20.958Z,99.70
2019-01-02T05:05:50.583Z,99.90
2019-01-02T05:08:20.181Z,99.90
2019-01-02T05:10:49.896Z,99.90
2019-01-02T05:13:19.564Z,99.40
2019-01-02T05:15:49.217Z,99.90
2019-01-02T05:18:18.899Z,99.90
2019-01-02T05:20:48.552Z,99.90
2019-01-02T05:23:18.274Z,99.90
2019-01-02T05:25:47.944Z,99.90
2019-01-02T05:28:17.522Z,99.90
2019-01-02T05:30:47.169Z,99.90
2019-01-02T05:33:16.835Z,99.90
2019-01-02T05:35:46.457Z,99.90
2019-01-02T05:38:16.172Z,99.90
2019-01-02T05:40:45.853Z,99.90
2019-01-02T05:43:15.510Z,99.90
2019-01-02T05:45:45.142Z,99.90
2019-01-02T05:48:14.795Z,99.90
2019-01-02T05:50:44.471Z,99.90
2019-01-02T05:53:14.111Z,99.90
2019-01-02T05:55:43.811Z,99.90
2019-01-02T05:58:13.431Z,99.90
2019-01-02T06:00:43.062Z,99.90
2019-01-02T06:03:12.767Z,99.80
2019-01-02T06:05:42.372Z,99.80
2019-01-02T06:08:11.997Z,99.20
2019-01-02T06:10:41.711Z,99.70
2019-01-02T06:13:11.383Z,98.50
2019-01-02T06:15:41.006Z,98.10
2019-01-02T06:18:10.673Z,97.50
2019-01-02T06:20:40.327Z,97.80
2019-01-02T06:23:10.061Z,97.70
2019-01-02T06:25:39.702Z,97.50
2019-01-02T06:28:09.338Z,96.80
2019-01-02T06:30:39.188Z,96.20
2019-01-02T06:33:08.862Z,95.60
2019-01-02T06:35:38.480Z,95.10
2019-01-02T06:38:08.156Z,95.40
2019-01-02T06:40:37.820Z,95.10
2019-01-02T06:43:07.460Z,93.70
2019-01-02T06:45:37.087Z,92.50
2019-01-02T06:48:06.738Z,91.40
2019-01-02T06:50:36.410Z,88.50
2019-01-02T06:53:06.008Z,84.70
2019-01-02T06:55:35.664Z,79.10
2019-01-02T06:58:05.305Z,76.50
2019-01-02T07:00:38.006Z,75.50
2019-01-02T07:03:07.685Z,74.20
2019-01-02T07:05:37.371Z,73.90
2019-01-02T07:08:06.992Z,72.80
2019-01-02T07:10:36.660Z,73.60
2019-01-02T07:13:06.275Z,74.90
2019-01-02T07:15:35.944Z,74.90
2019-01-02T07:18:05.669Z,75.10
2019-01-02T07:20:35.300Z,75.50
2019-01-02T07:23:04.952Z,74.10
2019-01-02T07:25:34.619Z,76.50
2019-01-02T07:28:04.218Z,77.60
2019-01-02T07:30:33.891Z,77.70
2019-01-02T07:33:03.581Z,78.00
2019-01-02T07:36:06.690Z,78.40
2019-01-02T07:39:06.003Z,78.10
2019-01-02T07:42:25.169Z,77.80
2019-01-02T07:45:29.107Z,78.40
2019-01-02T07:48:29.068Z,78.70
2019-01-02T07:51:29.059Z,79.00
2019-01-02T07:54:38.431Z,79.50
2019-01-02T07:58:00.169Z,79.50
2019-01-02T08:01:15.327Z,80.50
2019-01-02T08:04:37.238Z,78.80
2019-01-02T08:07:52.920Z,77.80
2019-01-02T08:11:04.115Z,77.30
2019-01-02T08:14:09.692Z,76.40
2019-01-02T08:17:13.642Z,76.30
2019-01-02T08:20:26.957Z,75.10
2019-01-02T08:23:28.393Z,76.70
2019-01-02T08:26:51.282Z,78.80
2019-01-02T08:30:04.316Z,77.10
2019-01-02T08:33:29.802Z,75.10
2019-01-02T08:36:37.800Z,75.70
2019-01-02T08:40:02.618Z,74.60
2019-01-02T08:42:57.936Z,70.70
2019-01-02T08:46:00.293Z,69.20
2019-01-02T08:49:35.408Z,68.40
2019-01-02T08:52:56.166Z,64.60
2019-01-02T08:56:02.289Z,64.00
2019-01-02T08:59:07.808Z,60.90
2019-01-02T09:02:18.169Z,59.80
2019-01-02T09:05:21.333Z,58.20
2019-01-02T09:08:37.432Z,57.00
2019-01-02T09:11:46.808Z,55.80
2019-01-02T09:14:49.810Z,55.20
2019-01-02T09:17:48.226Z,54.70
2019-01-02T09:20:55.623Z,54.30
2019-01-02T09:24:02.263Z,53.50
2019-01-02T09:27:16.010Z,52.60
2019-01-02T09:30:32.790Z,52.50
2019-01-02T09:33:42.185Z,51.80
2019-01-02T09:36:51.528Z,51.30
2019-01-02T09:39:54.110Z,51.80
2019-01-02T09:42:57.098Z,51.60
2019-01-02T09:46:13.997Z,50.80
2019-01-02T09:49:20.798Z,50.90
2019-01-02T09:52:29.953Z,51.20
2019-01-02T09:55:43.706Z,49.90
2019-01-02T09:58:49.039Z,50.20
2019-01-02T10:02:05.965Z,49.90
2019-01-02T10:05:16.477Z,49.70
2019-01-02T10:08:09.240Z,50.50
2019-01-02T10:11:22.397Z,50.60
2019-01-02T10:14:37.619Z,51.10
2019-01-02T10:17:45.975Z,51.10
2019-01-02T10:20:58.635Z,50.50
2019-01-02T10:24:24.180Z,50.20
2019-01-02T10:27:29.594Z,50.20
2019-01-02T10:30:49.658Z,50.10
2019-01-02T10:34:05.115Z,48.70
2019-01-02T10:37:18.790Z,49.10
2019-01-02T10:40:24.892Z,49.00
2019-01-02T10:43:42.799Z,48.70
2019-01-02T10:46:38.552Z,48.50
2019-01-02T10:50:04.624Z,48.50
2019-01-02T10:53:12.214Z,48.70
2019-01-02T10:56:13.962Z,48.60
2019-01-02T10:59:16.230Z,48.40
2019-01-02T11:02:38.863Z,49.60
2019-01-02T11:05:47.673Z,51.10
2019-01-02T11:08:36.698Z,51.40
2019-01-02T11:11:56.328Z,51.50
2019-01-02T11:14:51.178Z,50.60
2019-01-02T11:17:59.202Z,51.20
2019-01-02T11:21:08.578Z,52.50
2019-01-02T11:24:11.192Z,54.10
2019-01-02T11:27:27.292Z,54.40
2019-01-02T11:30:33.651Z,55.00
2019-01-02T11:33:53.650Z,56.40
2019-01-02T11:37:12.895Z,56.80
2019-01-02T11:40:32.852Z,58.20
2019-01-02T11:43:43.399Z,58.20
2019-01-02T11:46:13.278Z,56.70
2019-01-02T11:48:43.131Z,55.90
2019-01-02T11:51:12.956Z,55.00
2019-01-02T11:53:47.213Z,54.60
2019-01-02T11:56:16.839Z,54.80
2019-01-02T11:58:49.974Z,54.80
2019-01-02T12:01:18.384Z,54.70
2019-01-02T12:03:48.038Z,54.00
2019-01-02T12:06:17.658Z,54.20
2019-01-02T12:08:47.327Z,54.10
2019-01-02T12:11:18.523Z,54.20
2019-01-02T12:13:48.179Z,54.50
2019-01-02T12:16:17.809Z,54.50
2019-01-02T12:18:47.531Z,53.30
2019-01-02T12:21:18.314Z,53.70
2019-01-02T12:23:48.018Z,54.50
2019-01-02T12:26:17.758Z,55.00
2019-01-02T12:28:49.961Z,55.20
2019-01-02T12:31:19.651Z,55.00
2019-01-02T12:33:49.411Z,54.20
2019-01-02T12:36:19.129Z,54.50
2019-01-02T12:38:48.949Z,53.20
2019-01-02T12:41:18.639Z,52.50
2019-01-02T12:43:48.479Z,52.70
2019-01-02T12:46:19.573Z,53.00
2019-01-02T12:48:50.997Z,52.70
2019-01-02T12:51:20.759Z,52.70
2019-01-02T12:53:50.791Z,52.60
2019-01-02T12:56:23.544Z,52.40
2019-01-02T12:58:53.538Z,52.70
2019-01-02T13:01:40.339Z,52.90
2019-01-02T13:04:36.632Z,52.60
2019-01-02T13:07:51.543Z,53.00
2019-01-02T13:10:43.364Z,52.80
2019-01-02T13:13:50.179Z,53.10
2019-01-02T13:16:31.014Z,53.20
2019-01-02T13:19:31.578Z,53.60
2019-01-02T13:22:56.616Z,54.40
2019-01-02T13:26:01.417Z,54.60
2019-01-02T13:29:10.809Z,55.20
2019-01-02T13:31:55.833Z,55.30
2019-01-02T13:34:51.696Z,55.50
2019-01-02T13:37:37.978Z,56.10
2019-01-02T13:40:59.073Z,55.70
2019-01-02T13:43:41.072Z,55.40
2019-01-02T13:46:33.005Z,55.10
2019-01-02T13:49:40.877Z,55.20
2019-01-02T13:52:10.519Z,55.20
2019-01-02T13:54:40.198Z,56.10
2019-01-02T13:57:09.963Z,56.80
2019-01-02T13:59:40.202Z,58.40
2019-01-02T14:02:10.064Z,58.40
2019-01-02T14:04:57.897Z,58.90
2019-01-02T14:07:20.337Z,58.50
2019-01-02T14:09:49.998Z,58.50
2019-01-02T14:12:21.036Z,58.50
2019-01-02T14:14:50.730Z,58.30
2019-01-02T14:17:20.456Z,58.50
2019-01-02T14:19:50.224Z,58.60
2019-01-02T14:22:25.694Z,59.10
2019-01-02T14:24:55.598Z,59.40
2019-01-02T14:27:25.224Z,59.70
2019-01-02T14:29:54.938Z,59.80
2019-01-02T14:32:24.609Z,59.60
2019-01-02T14:34:56.831Z,59.80
2019-01-02T14:37:26.479Z,59.30
2019-01-02T14:39:56.147Z,58.90
2019-01-02T14:42:25.781Z,58.90
2019-01-02T14:44:55.444Z,59.20
2019-01-02T14:47:25.086Z,59.00
2019-01-02T14:49:54.831Z,59.00
2019-01-02T14:52:24.438Z,59.30
2019-01-02T14:54:54.098Z,59.40
2019-01-02T14:57:23.816Z,59.40
2019-01-02T14:59:53.673Z,59.60
2019-01-02T15:02:23.344Z,59.30
2019-01-02T15:04:53.000Z,59.30
2019-01-02T15:07:23.923Z,62.00
2019-01-02T15:09:53.618Z,61.90
2019-01-02T15:12:24.471Z,61.80
2019-01-02T15:14:54.232Z,60.30
2019-01-02T15:17:25.171Z,60.80
2019-01-02T15:19:55.051Z,61.00
2019-01-02T15:22:24.685Z,61.80
2019-01-02T15:24:54.331Z,59.60
2019-01-02T15:27:23.998Z,59.30
2019-01-02T15:29:53.774Z,58.90
2019-01-02T15:32:25.904Z,58.90
2019-01-02T15:34:55.647Z,58.50
2019-01-02T15:37:25.318Z,58.10
2019-01-02T15:39:55.315Z,58.10
2019-01-02T15:42:24.917Z,58.10
2019-01-02T15:44:54.787Z,58.10
2019-01-02T15:47:24.452Z,58.20
2019-01-02T15:49:54.211Z,58.00
2019-01-02T15:52:23.921Z,58.10
2019-01-02T15:54:53.612Z,58.10
2019-01-02T15:57:23.239Z,58.60
2019-01-02T15:59:52.900Z,59.40
2019-01-02T16:02:22.653Z,60.70
2019-01-02T16:04:52.289Z,61.30
2019-01-02T16:07:22.004Z,61.70
2019-01-02T16:09:51.660Z,62.80
2019-01-02T16:12:21.332Z,60.80
2019-01-02T16:14:51.028Z,59.10
2019-01-02T16:17:22.111Z,59.30
2019-01-02T16:19:51.804Z,61.00
2019-01-02T16:22:21.458Z,60.60
2019-01-02T16:24:55.506Z,63.10
2019-01-02T16:27:24.277Z,61.70
2019-01-02T16:29:54.151Z,60.40
2019-01-02T16:32:24.065Z,60.80
2019-01-02T16:34:53.704Z,62.60
2019-01-02T16:37:25.922Z,62.50
2019-01-02T16:39:55.713Z,58.70
2019-01-02T16:42:28.055Z,58.30
2019-01-02T16:44:57.747Z,57.70
2019-01-02T16:47:27.430Z,57.50
2019-01-02T16:49:57.054Z,57.30
2019-01-02T16:52:28.790Z,57.40
2019-01-02T16:54:58.321Z,57.30
2019-01-02T16:57:38.738Z,57.20
2019-01-02T17:00:15.811Z,56.70
2019-01-02T17:02:45.730Z,56.80
2019-01-02T17:05:15.366Z,56.80
2019-01-02T17:07:45.305Z,55.90
2019-01-02T17:10:15.305Z,55.70
2019-01-02T17:12:44.951Z,57.50
2019-01-02T17:15:17.685Z,57.80
2019-01-02T17:17:47.860Z,57.90
2019-01-02T17:20:17.752Z,58.60
2019-01-02T17:22:54.156Z,57.90
2019-01-02T17:25:23.973Z,57.70
2019-01-02T17:27:53.967Z,57.80
2019-01-02T17:30:23.953Z,57.60
2019-01-02T17:33:00.607Z,57.40
2019-01-02T17:35:33.939Z,57.40
2019-01-02T17:38:06.426Z,57.60
2019-01-02T17:40:39.677Z,57.80
2019-01-02T17:43:10.793Z,58.00
2019-01-02T17:45:40.526Z,58.10
2019-01-02T17:48:15.778Z,58.40
2019-01-02T17:50:47.129Z,58.50
2019-01-02T17:53:19.937Z,58.70
2019-01-02T17:55:52.124Z,58.70
2019-01-02T17:58:21.823Z,58.70
2019-01-02T18:00:53.572Z,58.70
2019-01-02T18:03:26.961Z,58.60
2019-01-02T18:05:59.260Z,58.70
2019-01-02T18:08:29.192Z,58.80
2019-01-02T18:10:58.840Z,58.70
2019-01-02T18:13:28.567Z,59.50
2019-01-02T18:15:58.219Z,61.90
2019-01-02T18:18:27.903Z,62.60
2019-01-02T18:21:00.816Z,60.20
2019-01-02T18:23:30.471Z,59.50
2019-01-02T18:26:00.109Z,59.70
2019-01-02T18:28:29.751Z,60.20
2019-01-02T18:30:59.489Z,61.00
2019-01-02T18:33:29.192Z,60.20
2019-01-02T18:35:58.842Z,60.80
2019-01-02T18:38:28.532Z,60.50
2019-01-02T18:40:58.174Z,60.80
2019-01-02T18:43:27.898Z,59.80
2019-01-02T18:45:57.892Z,59.40
2019-01-02T18:48:27.594Z,59.20
2019-01-02T18:50:57.344Z,59.40
2019-01-02T18:53:27.049Z,59.70
2019-01-02T18:55:57.086Z,60.90
2019-01-02T18:58:26.740Z,61.80
2019-01-02T19:00:56.533Z,60.90
2019-01-02T19:03:27.453Z,62.00
2019-01-02T19:05:57.656Z,62.60
2019-01-02T19:08:27.872Z,61.60
2019-01-02T19:10:57.838Z,61.90
2019-01-02T19:13:27.694Z,60.90
2019-01-02T19:15:57.933Z,60.90
2019-01-02T19:18:28.389Z,59.60
2019-01-02T19:20:59.104Z,59.60
2019-01-02T19:23:33.374Z,59.20
2019-01-02T19:26:03.235Z,59.50
2019-01-02T19:28:33.380Z,58.80
2019-01-02T19:31:03.595Z,59.70
2019-01-02T19:33:33.282Z,59.30
2019-01-02T19:36:03.184Z,58.90
2019-01-02T19:38:33.157Z,58.90
2019-01-02T19:41:03.325Z,58.90
2019-01-02T19:43:33.112Z,58.90
2019-01-02T19:46:03.257Z,59.20
2019-01-02T19:48:33.646Z,58.90
2019-01-02T19:51:04.017Z,58.50
2019-01-02T19:53:33.882Z,58.30
2019-01-02T19:56:03.826Z,58.20
2019-01-02T19:58:33.774Z,58.00
2019-01-02T20:01:03.571Z,57.60
2019-01-02T20:03:33.713Z,57.90
2019-01-02T20:06:03.938Z,57.60
2019-01-02T20:08:33.789Z,58.00
2019-01-02T20:11:04.063Z,58.20
2019-01-02T20:13:33.712Z,58.90
2019-01-02T20:16:03.562Z,59.20
2019-01-02T20:18:33.386Z,59.40
2019-01-02T20:21:03.186Z,59.50
2019-01-02T20:23:32.805Z,59.90
2019-01-02T20:26:02.611Z,59.40
2019-01-02T20:28:32.363Z,59.20
2019-01-02T20:31:02.204Z,59.10
2019-01-02T20:33:31.916Z,59.20
2019-01-02T20:36:02.178Z,58.80
2019-01-02T20:38:40.603Z,58.60
2019-01-02T20:41:06.564Z,59.70
2019-01-02T20:43:40.142Z,58.50
2019-01-02T20:46:10.124Z,58.00
2019-01-02T20:48:41.834Z,57.50
2019-01-02T20:51:15.926Z,58.00
2019-01-02T20:53:45.764Z,58.20
2019-01-02T20:56:19.835Z,58.30
2019-01-02T20:58:54.961Z,58.20
2019-01-02T21:01:24.665Z,58.40
2019-01-02T21:03:54.415Z,57.80
2019-01-02T21:06:26.679Z,58.00
2019-01-02T21:08:56.371Z,58.00
2019-01-02T21:11:26.129Z,57.80
2019-01-02T21:13:55.854Z,57.90
2019-01-02T21:16:25.949Z,58.10
2019-01-02T21:18:57.755Z,58.70
2019-01-02T21:21:29.065Z,59.20
2019-01-02T21:24:01.520Z,59.60
2019-01-02T21:26:38.080Z,59.00
2019-01-02T21:29:13.457Z,58.80
2019-01-02T21:31:45.939Z,58.80
2019-01-02T21:34:15.834Z,57.10
2019-01-02T21:36:45.858Z,54.80
2019-01-02T21:39:15.758Z,56.70
2019-01-02T21:41:45.443Z,55.60
2019-01-02T21:44:16.543Z,55.00
2019-01-02T21:46:46.219Z,52.10
2019-01-02T21:49:19.034Z,50.00
2019-01-02T21:51:49.815Z,46.30
2019-01-02T21:54:20.622Z,45.10
2019-01-02T21:56:50.289Z,42.60
2019-01-02T21:59:19.968Z,42.60
2019-01-02T22:01:49.686Z,43.00
2019-01-02T22:04:20.402Z,42.10
2019-01-02T22:06:52.659Z,42.40
2019-01-02T22:09:25.310Z,42.00
2019-01-02T22:11:55.243Z,41.40
2019-01-02T22:14:24.950Z,39.50
2019-01-02T22:16:57.112Z,40.20
2019-01-02T22:19:26.767Z,37.80
2019-01-02T22:21:59.104Z,37.70
2019-01-02T22:24:28.701Z,36.90
2019-01-02T22:26:58.379Z,38.60
2019-01-02T22:29:28.181Z,38.50
2019-01-02T22:31:57.853Z,39.20
2019-01-02T22:34:27.575Z,39.50
2019-01-02T22:36:58.534Z,40.50
2019-01-02T22:39:28.596Z,40.10
2019-01-02T22:41:58.207Z,40.20
2019-01-02T22:44:27.992Z,41.90
2019-01-02T22:47:18.982Z,41.70
2019-01-02T22:49:48.732Z,42.20
2019-01-02T22:52:20.799Z,41.90
2019-01-02T22:54:52.998Z,41.70
2019-01-02T22:57:24.855Z,40.40
2019-01-02T22:59:55.609Z,40.80
2019-01-02T23:02:34.009Z,40.20
2019-01-02T23:05:24.234Z,41.50
2019-01-02T23:08:26.219Z,40.20
2019-01-02T23:11:23.970Z,39.80
2019-01-02T23:14:11.691Z,39.10
2019-01-02T23:17:04.095Z,39.10
2019-01-02T23:19:55.665Z,39.30
2019-01-02T23:23:04.363Z,38.80
2019-01-02T23:25:53.414Z,38.70
2019-01-02T23:28:41.275Z,38.70
2019-01-02T23:31:35.638Z,38.70
2019-01-02T23:34:22.917Z,38.60
2019-01-02T23:37:23.627Z,39.00
2019-01-02T23:40:12.295Z,39.10
2019-01-02T23:43:00.936Z,39.30
2019-01-02T23:46:04.226Z,39.60
2019-01-02T23:48:47.556Z,40.70
2019-01-02T23:51:27.297Z,40.60
2019-01-02T23:54:11.511Z,40.40
2019-01-02T23:57:04.059Z,40.60
2019-01-02T23:59:56.689Z,41.00
